Time;durP1;ratioP1;P1;durP2;ratioP2;P2;SDS_P1;SDS_P2;PMS_P1;PMS_P2;Temp;Humidity;BMP_temperature;BMP_pressure;BME280_temperature;BME280_humidity;BME280_pressure;Samples;Min_cycle;Max_cycle;Signal;HPM_P1;HPM_P2
2023/07/28 00:02:12;;;;;;;6.88;6.18;;;;;;;16.37;100.00;100400.97;4936461;29;20036;-93
2023/07/28 00:04:54;;;;;;;7.23;6.10;;;;;;;16.22;100.00;100383.19;4949883;29;20567;-93
2023/07/28 00:08:05;;;;;;;6.93;6.22;;;;;;;16.18;100.00;100379.50;4905496;29;20073;-93
2023/07/28 00:14:33;;;;;;;7.72;6.15;;;;;;;16.21;100.00;100370.78;4917564;29;20117;-94
2023/07/28 00:17:08;;;;;;;8.20;5.82;;;;;;;16.16;100.00;100363.59;4958404;29;20062;-93
2023/07/28 00:19:37;;;;;;;7.23;6.33;;;;;;;16.23;100.00;100373.19;4939929;29;20031;-94
2023/07/28 00:22:15;;;;;;;7.93;6.40;;;;;;;16.36;100.00;100391.25;4939752;29;20284;-93
2023/07/28 00:24:40;;;;;;;8.60;6.43;;;;;;;16.47;100.00;100414.22;4940444;29;20036;-93
2023/07/28 00:27:14;;;;;;;7.30;6.55;;;;;;;16.39;100.00;100406.06;4940164;29;20047;-93
2023/07/28 00:30:36;;;;;;;11.55;6.63;;;;;;;16.37;100.00;100400.16;4938038;29;20056;-94
2023/07/28 00:33:04;;;;;;;7.40;6.57;;;;;;;16.18;100.00;100372.22;4857308;29;20053;-94
2023/07/28 00:39:01;;;;;;;13.18;7.35;;;;;;;16.29;100.00;100383.56;4866794;29;20513;-94
2023/07/28 00:41:40;;;;;;;10.45;7.50;;;;;;;16.36;100.00;100393.97;4895141;29;20602;-94
2023/07/28 00:44:09;;;;;;;9.50;7.70;;;;;;;16.26;100.00;100378.78;4893123;29;20037;-94
2023/07/28 00:46:47;;;;;;;10.80;8.38;;;;;;;16.35;100.00;100393.16;4894900;29;20176;-93
2023/07/28 00:49:13;;;;;;;9.68;8.02;;;;;;;16.28;100.00;100384.69;4882296;29;20037;-94
2023/07/28 00:51:46;;;;;;;10.25;7.38;;;;;;;16.15;100.00;100367.41;4882171;29;20259;-94
2023/07/28 00:54:12;;;;;;;9.50;7.83;;;;;;;15.97;100.00;100344.88;4860712;29;20035;-94
2023/07/28 00:56:37;;;;;;;10.43;7.72;;;;;;;16.02;100.00;100349.34;4893824;29;20052;-94
2023/07/28 00:59:03;;;;;;;13.13;8.13;;;;;;;16.11;100.00;100374.53;4915724;29;20112;-95
2023/07/28 01:01:29;;;;;;;11.43;8.60;;;;;;;16.08;100.00;100368.94;4916305;29;20042;-95
2023/07/28 01:03:54;;;;;;;12.98;9.02;;;;;;;15.97;100.00;100360.28;4915515;29;20039;-94
2023/07/28 01:06:39;;;;;;;11.60;8.73;;;;;;;16.26;100.00;100415.81;4914362;29;20051;-94
2023/07/28 01:09:12;;;;;;;12.85;8.93;;;;;;;16.28;100.00;100413.59;4914706;29;20036;-94
2023/07/28 01:11:37;;;;;;;15.75;9.50;;;;;;;16.31;100.00;100407.59;4914187;29;20032;-94
2023/07/28 01:14:02;;;;;;;15.50;8.97;;;;;;;16.24;100.00;100407.22;4913450;29;20043;-94
2023/07/28 01:16:28;;;;;;;16.53;9.43;;;;;;;16.29;100.00;100401.69;4912941;29;20043;-93
2023/07/28 01:18:53;;;;;;;13.80;8.90;;;;;;;16.32;100.00;100415.41;4914633;29;20386;-93
2023/07/28 01:21:26;;;;;;;13.53;9.23;;;;;;;16.30;100.00;100397.88;4915512;29;20119;-94
2023/07/28 01:24:15;;;;;;;13.50;9.27;;;;;;;16.33;100.00;100397.28;4915323;29;20083;-93
2023/07/28 01:26:41;;;;;;;14.82;8.80;;;;;;;16.35;100.00;100406.66;4907636;29;20035;-93
2023/07/28 01:29:07;;;;;;;15.03;8.97;;;;;;;16.34;100.00;100402.34;4915230;29;20440;-94
2023/07/28 01:31:33;;;;;;;16.60;8.98;;;;;;;16.34;100.00;100401.56;4914406;29;20111;-94
2023/07/28 01:33:58;;;;;;;15.43;9.25;;;;;;;16.35;100.00;100408.59;4920287;29;20123;-94
2023/07/28 01:36:24;;;;;;;12.60;8.77;;;;;;;16.20;100.00;100388.91;4916894;29;20387;-94
2023/07/28 01:38:49;;;;;;;11.90;8.40;;;;;;;16.31;100.00;100407.59;4914700;29;20036;-94
2023/07/28 01:41:15;;;;;;;15.45;8.05;;;;;;;16.30;100.00;100400.59;4939366;29;20044;-94
2023/07/28 01:43:41;;;;;;;12.90;8.60;;;;;;;16.45;100.00;100418.34;4942940;29;20100;-94
2023/07/28 01:46:07;;;;;;;13.65;8.02;;;;;;;16.24;100.00;100399.13;4918984;29;20036;-93
2023/07/28 01:48:32;;;;;;;15.73;8.63;;;;;;;16.30;100.00;100400.59;4933158;29;20012;-96
2023/07/28 01:50:58;;;;;;;14.03;8.73;;;;;;;16.44;100.00;100430.28;4921845;29;20051;-94
2023/07/28 01:53:23;;;;;;;13.13;8.27;;;;;;;16.43;100.00;100429.47;4914758;29;20490;-95
2023/07/28 01:55:48;;;;;;;12.57;7.90;;;;;;;16.36;100.00;100415.59;4926910;29;20502;-94
2023/07/28 01:58:14;;;;;;;12.93;8.77;;;;;;;16.26;100.00;100405.81;4914608;29;20463;-95
2023/07/28 02:00:39;;;;;;;14.90;8.17;;;;;;;16.31;100.00;100402.19;4916273;29;20034;-93
2023/07/28 02:03:05;;;;;;;12.97;8.10;;;;;;;16.38;100.00;100407.97;4914185;29;20392;-94
2023/07/28 02:05:30;;;;;;;13.48;8.70;;;;;;;16.45;100.00;100429.16;4920776;29;20039;-95
2023/07/28 02:07:57;;;;;;;12.57;8.37;;;;;;;16.42;100.00;100430.59;4932296;29;20452;-95
2023/07/28 02:10:23;;;;;;;14.15;9.13;;;;;;;16.41;100.00;100425.47;4933471;29;20060;-94
2023/07/28 02:12:51;;;;;;;15.18;9.27;;;;;;;16.45;100.00;100421.06;4925275;29;20036;-94
2023/07/28 02:15:16;;;;;;;14.50;8.40;;;;;;;16.43;100.00;100421.34;4924373;29;20114;-94
2023/07/28 02:17:42;;;;;;;16.53;9.27;;;;;;;16.41;100.00;100422.78;4938939;29;20062;-93
2023/07/28 02:20:10;;;;;;;16.33;9.15;;;;;;;16.39;100.00;100416.88;4938737;29;20040;-95
2023/07/28 02:22:36;;;;;;;16.60;9.27;;;;;;;16.39;100.00;100423.09;4927017;29;20060;-95
2023/07/28 02:25:02;;;;;;;18.30;10.07;;;;;;;16.42;100.00;100425.19;4936655;29;20338;-95
2023/07/28 02:27:28;;;;;;;18.58;9.73;;;;;;;16.36;100.00;100410.19;4936690;29;20024;-95
2023/07/28 02:29:53;;;;;;;22.30;11.10;;;;;;;16.41;100.00;100426.28;4931173;29;20095;-95
2023/07/28 02:32:19;;;;;;;19.00;10.50;;;;;;;16.42;100.00;100430.59;4918126;29;20303;-95
2023/07/28 02:34:44;;;;;;;23.98;11.35;;;;;;;16.40;100.00;100424.69;4933767;29;20039;-94
2023/07/28 02:37:10;;;;;;;21.53;10.90;;;;;;;16.37;100.00;100416.38;4936531;29;20035;-96
2023/07/28 02:39:35;;;;;;;23.23;11.43;;;;;;;16.41;100.00;100423.59;4936308;29;20063;-95
2023/07/28 02:42:01;;;;;;;23.83;11.87;;;;;;;16.44;100.00;100419.47;4933524;29;20032;-96
2023/07/28 02:44:26;;;;;;;24.98;11.45;;;;;;;16.45;100.00;100434.56;4917860;29;20044;-95
2023/07/28 02:46:52;;;;;;;24.63;12.10;;;;;;;16.45;100.00;100424.53;4917502;29;20032;-95
2023/07/28 02:49:18;;;;;;;26.90;12.30;;;;;;;16.45;100.00;100429.16;4916466;29;20485;-96
2023/07/28 02:51:44;;;;;;;25.03;12.90;;;;;;;16.46;100.00;100436.19;4917703;29;20862;-96
2023/07/28 02:54:09;;;;;;;22.50;11.97;;;;;;;16.45;100.00;100440.78;4917419;29;20319;-96
2023/07/28 02:56:37;;;;;;;26.83;12.50;;;;;;;16.40;100.00;100432.81;4933071;29;20087;-94
2023/07/28 02:59:03;;;;;;;27.98;12.25;;;;;;;16.45;100.00;100446.19;4937302;29;20122;-96
2023/07/28 03:01:35;;;;;;;28.95;12.98;;;;;;;16.34;100.00;100432.09;4946290;29;20022;-96
2023/07/28 03:04:03;;;;;;;28.48;13.15;;;;;;;16.40;100.00;100437.41;4931758;29;20032;-96
2023/07/28 03:06:28;;;;;;;28.38;13.27;;;;;;;16.44;100.00;100439.16;4918184;29;20028;-96
2023/07/28 03:08:54;;;;;;;25.97;13.67;;;;;;;16.45;100.00;100438.06;4935602;29;20016;-96
2023/07/28 03:11:19;;;;;;;28.63;13.93;;;;;;;16.45;100.00;100437.28;4922328;29;20396;-95
2023/07/28 03:13:45;;;;;;;32.25;13.90;;;;;;;16.37;100.00;100435.28;4916689;29;20373;-95
2023/07/28 03:16:10;;;;;;;27.93;13.53;;;;;;;16.35;100.00;100435.63;4917704;29;20463;-96
2023/07/28 03:18:35;;;;;;;33.20;15.07;;;;;;;16.33;100.00;100437.81;4915561;29;20684;-96
2023/07/28 03:21:01;;;;;;;33.57;14.90;;;;;;;16.40;100.00;100448.22;4927665;29;20027;-96
2023/07/28 03:23:27;;;;;;;32.17;14.85;;;;;;;16.38;100.00;100448.53;4921653;28;20035;-96
2023/07/28 03:25:52;;;;;;;31.17;14.33;;;;;;;16.39;100.00;100447.44;4917007;29;20480;-95
2023/07/28 03:28:17;;;;;;;36.95;14.90;;;;;;;16.41;100.00;100453.31;4917317;29;20042;-95
2023/07/28 03:30:43;;;;;;;29.90;13.87;;;;;;;16.28;100.00;100435.22;4917101;29;20495;-95
2023/07/28 03:33:08;;;;;;;37.07;15.30;;;;;;;16.43;100.00;100453.78;4919383;29;20495;-96
2023/07/28 03:35:34;;;;;;;38.87;16.37;;;;;;;16.24;100.00;100423.44;4925832;29;20068;-96
2023/07/28 03:38:00;;;;;;;36.33;15.32;;;;;;;16.15;100.00;100409.88;4931577;29;20436;-96
2023/07/28 03:40:25;;;;;;;34.63;15.17;;;;;;;16.14;100.00;100414.47;4902563;29;20038;-95
2023/07/28 03:42:52;;;;;;;41.05;15.82;;;;;;;16.39;100.00;100452.00;4916617;29;20039;-96
2023/07/28 03:45:17;;;;;;;43.42;16.15;;;;;;;16.40;100.00;100451.72;4917449;29;20032;-96
2023/07/28 03:47:43;;;;;;;38.47;16.17;;;;;;;16.20;100.00;100429.47;4918576;29;20086;-96
2023/07/28 03:50:08;;;;;;;38.90;15.23;;;;;;;16.42;100.00;100470.34;4917621;29;20396;-96
2023/07/28 03:52:34;;;;;;;36.13;15.50;;;;;;;16.35;100.00;100452.63;4919139;29;20319;-96
2023/07/28 03:54:59;;;;;;;38.73;15.83;;;;;;;16.21;100.00;100435.66;4917568;29;20028;-95
2023/07/28 03:57:24;;;;;;;39.35;16.58;;;;;;;16.43;100.00;100477.34;4916633;29;20036;-96
2023/07/28 03:59:50;;;;;;;39.90;16.20;;;;;;;16.40;100.00;100472.53;4916563;29;20547;-96
2023/07/28 04:02:15;;;;;;;40.73;16.87;;;;;;;16.50;100.00;100475.03;4917024;29;20036;-96
2023/07/28 04:04:41;;;;;;;41.50;16.00;;;;;;;16.48;100.00;100471.81;4917542;29;20059;-95
2023/07/28 04:07:06;;;;;;;36.40;15.93;;;;;;;16.40;100.00;100470.66;4915995;29;20067;-94
2023/07/28 04:09:31;;;;;;;40.03;16.80;;;;;;;16.47;100.00;100478.34;4917007;29;20028;-96
2023/07/28 04:11:57;;;;;;;40.07;16.30;;;;;;;16.39;100.00;100466.34;4930504;29;20306;-95
2023/07/28 04:14:22;;;;;;;43.27;16.20;;;;;;;16.48;100.00;100483.44;4928651;29;20087;-95
2023/07/28 04:16:47;;;;;;;42.37;16.67;;;;;;;16.38;100.00;100467.44;4935127;29;20395;-96
2023/07/28 04:19:13;;;;;;;38.92;17.17;;;;;;;16.53;100.00;100477.09;4932411;29;20489;-95
2023/07/28 04:21:39;;;;;;;45.37;17.00;;;;;;;16.50;100.00;100485.84;4928267;29;20032;-94
2023/07/28 04:24:09;;;;;;;40.25;17.08;;;;;;;16.42;100.00;100471.16;5026273;23;20039;-93
2023/07/28 04:26:34;;;;;;;38.80;16.20;;;;;;;16.40;100.00;100459.84;4934430;29;20050;-92
2023/07/28 04:29:00;;;;;;;37.40;15.70;;;;;;;16.54;100.00;100486.81;4939139;29;20759;-87
2023/07/28 04:31:26;;;;;;;34.53;15.60;;;;;;;16.53;100.00;100484.41;4933940;29;20534;-88
2023/07/28 04:33:51;;;;;;;41.28;15.85;;;;;;;16.57;100.00;100482.72;4933027;29;20040;-88
2023/07/28 04:36:17;;;;;;;38.17;16.83;;;;;;;16.54;100.00;100480.63;4933147;29;20038;-88
2023/07/28 04:38:42;;;;;;;41.35;16.40;;;;;;;16.55;100.00;100483.00;4932079;29;20023;-88
2023/07/28 04:41:07;;;;;;;42.70;16.40;;;;;;;16.46;100.00;100461.28;4933336;29;20090;-89
2023/07/28 04:43:33;;;;;;;39.93;16.33;;;;;;;16.52;100.00;100478.22;4933272;29;20138;-88
2023/07/28 04:45:58;;;;;;;34.53;15.60;;;;;;;16.52;100.00;100475.53;4932305;29;20036;-87
2023/07/28 04:48:23;;;;;;;34.17;15.60;;;;;;;16.61;100.00;100475.59;4930989;29;20059;-84
2023/07/28 04:50:49;;;;;;;37.07;15.53;;;;;;;16.60;100.00;100468.56;4932106;29;20432;-84
2023/07/28 04:53:14;;;;;;;39.70;16.30;;;;;;;16.62;100.00;100482.56;4932587;29;20307;-85
2023/07/28 04:55:40;;;;;;;33.53;16.00;;;;;;;16.64;100.00;100483.88;4930948;29;20032;-84
2023/07/28 04:58:05;;;;;;;35.10;16.30;;;;;;;16.60;100.00;100482.09;4933439;29;20027;-85
2023/07/28 05:00:30;;;;;;;37.97;16.20;;;;;;;16.63;100.00;100473.34;4933463;29;20284;-84
2023/07/28 05:02:56;;;;;;;37.90;16.77;;;;;;;16.75;100.00;100483.63;4925191;29;20031;-85
2023/07/28 05:05:21;;;;;;;37.27;15.97;;;;;;;16.76;100.00;100477.91;4932740;29;20044;-85
2023/07/28 05:07:46;;;;;;;38.50;16.07;;;;;;;16.84;100.00;100480.97;4930256;29;20078;-85
2023/07/28 05:10:12;;;;;;;37.40;16.40;;;;;;;16.92;100.00;100480.25;4933229;29;20439;-85
2023/07/28 05:12:37;;;;;;;35.17;16.33;;;;;;;16.91;100.00;100473.22;4932437;29;20475;-84
2023/07/28 05:15:04;;;;;;;33.70;16.13;;;;;;;16.97;100.00;100488.28;4933205;29;20087;-85
2023/07/28 05:17:29;;;;;;;34.70;15.88;;;;;;;16.98;100.00;100489.06;4932655;29;20036;-84
2023/07/28 05:19:54;;;;;;;32.43;15.73;;;;;;;16.98;100.00;100495.25;4930662;29;20490;-84
2023/07/28 05:22:20;;;;;;;33.13;15.43;;;;;;;17.01;100.00;100502.75;4932225;29;20336;-85
2023/07/28 05:24:45;;;;;;;34.47;16.80;;;;;;;16.99;100.00;100502.25;4932265;29;20465;-85
2023/07/28 05:27:11;;;;;;;35.63;16.20;;;;;;;16.99;100.00;100513.09;4932079;29;20115;-84
2023/07/28 05:29:37;;;;;;;29.50;16.02;;;;;;;17.02;100.00;100512.47;4931934;29;20120;-85
2023/07/28 05:32:03;;;;;;;37.75;15.93;;;;;;;17.00;100.00;100514.69;4938121;29;20129;-86
2023/07/28 05:34:29;;;;;;;33.25;16.80;;;;;;;17.01;100.00;100505.47;4932976;29;20027;-87
2023/07/28 05:36:55;;;;;;;34.97;16.67;;;;;;;17.09;100.00;100520.16;4932132;29;20031;-88
2023/07/28 05:39:20;;;;;;;36.23;16.13;;;;;;;17.13;100.00;100517.66;4932294;29;20024;-86
2023/07/28 05:41:46;;;;;;;41.10;17.63;;;;;;;17.09;100.00;100512.84;4933922;29;20036;-87
2023/07/28 05:44:11;;;;;;;36.00;19.23;;;;;;;17.14;100.00;100530.06;4932275;29;20023;-87
2023/07/28 05:46:36;;;;;;;38.65;18.83;;;;;;;17.25;100.00;100523.28;4931197;29;20432;-86
2023/07/28 05:49:02;;;;;;;41.47;20.27;;;;;;;17.27;100.00;100526.47;4934246;29;20391;-86
2023/07/28 05:51:27;;;;;;;41.60;20.93;;;;;;;17.24;100.00;100521.69;4931036;29;20062;-86
2023/07/28 05:53:52;;;;;;;46.13;20.87;;;;;;;17.36;100.00;100534.66;4932201;29;20484;-86
2023/07/28 05:56:18;;;;;;;42.13;22.50;;;;;;;17.39;100.00;100536.75;4931831;29;20071;-86
2023/07/28 05:58:45;;;;;;;55.72;25.38;;;;;;;17.43;100.00;100536.91;4933755;29;20440;-87
2023/07/28 06:01:10;;;;;;;48.78;24.67;;;;;;;17.45;100.00;100535.47;4943055;28;20030;-86
2023/07/28 06:03:36;;;;;;;50.00;25.70;;;;;;;17.54;100.00;100541.75;4926208;29;20032;-88
2023/07/28 06:06:02;;;;;;;53.80;26.10;;;;;;;17.50;100.00;100524.53;4934243;29;20394;-87
2023/07/28 06:08:27;;;;;;;55.73;28.23;;;;;;;17.65;100.00;100533.34;4935144;29;20731;-86
2023/07/28 06:10:53;;;;;;;60.10;28.45;;;;;;;17.64;100.00;100526.31;4932703;28;20058;-86
2023/07/28 06:13:18;;;;;;;55.57;29.00;;;;;;;17.81;100.00;100533.72;4937883;28;20074;-90
2023/07/28 06:15:44;;;;;;;58.87;29.17;;;;;;;17.95;100.00;100537.09;4935434;29;20040;-89
2023/07/28 06:18:09;;;;;;;63.30;29.53;;;;;;;18.13;100.00;100543.41;4936129;29;20038;-89
2023/07/28 06:20:34;;;;;;;58.33;28.97;;;;;;;18.14;100.00;100542.31;4937330;29;20119;-89
2023/07/28 06:23:00;;;;;;;57.17;29.15;;;;;;;18.05;100.00;100540.69;4936021;29;20063;-89
2023/07/28 06:25:25;;;;;;;55.27;28.53;;;;;;;17.97;100.00;100540.31;4933655;29;20452;-88
2023/07/28 06:27:51;;;;;;;56.33;27.30;;;;;;;17.97;100.00;100532.19;4935047;29;20090;-90
2023/07/28 06:30:16;;;;;;;51.95;26.42;;;;;;;18.00;100.00;100545.13;4933380;28;20023;-88
2023/07/28 06:32:41;;;;;;;54.87;26.70;;;;;;;18.05;100.00;100541.47;4935419;29;20091;-90
2023/07/28 06:35:07;;;;;;;50.30;25.47;;;;;;;18.07;100.00;100543.88;4935952;29;20027;-92
2023/07/28 06:37:36;;;;;;;47.05;23.83;;;;;;;18.06;100.00;100559.34;4935676;29;20115;-88
2023/07/28 06:40:01;;;;;;;50.58;23.05;;;;;;;18.04;100.00;100552.63;4933060;29;20063;-88
2023/07/28 06:42:27;;;;;;;42.13;21.77;;;;;;;18.09;100.00;100558.72;4930768;29;20033;-88
2023/07/28 06:44:52;;;;;;;45.13;22.47;;;;;;;18.11;100.00;100561.09;4934634;29;20075;-89
2023/07/28 06:47:18;;;;;;;40.42;20.92;;;;;;;18.05;100.00;100567.78;4941899;28;20472;-88
2023/07/28 06:49:44;;;;;;;41.07;20.83;;;;;;;18.03;100.00;100551.81;4934721;29;20593;-88
2023/07/28 06:52:09;;;;;;;40.22;19.98;;;;;;;18.17;100.00;100565.25;4934763;29;20035;-87
2023/07/28 06:54:35;;;;;;;43.80;19.97;;;;;;;18.35;100.00;100574.22;4935072;29;20046;-85
2023/07/28 06:57:00;;;;;;;40.38;18.95;;;;;;;18.59;100.00;100573.78;4934825;29;20094;-85
2023/07/28 06:59:26;;;;;;;34.80;18.40;;;;;;;18.71;100.00;100580.50;4934677;29;20035;-85
2023/07/28 07:01:51;;;;;;;36.47;18.48;;;;;;;18.74;100.00;100577.13;4937959;29;20106;-86
2023/07/28 07:04:17;;;;;;;30.90;16.67;;;;;;;18.75;100.00;100578.75;4935730;29;20040;-86
2023/07/28 07:06:42;;;;;;;28.33;16.90;;;;;;;18.75;100.00;100587.66;4933453;29;20032;-86
2023/07/28 07:09:08;;;;;;;30.23;16.73;;;;;;;18.64;100.00;100582.88;4937363;29;20046;-87
2023/07/28 07:11:34;;;;;;;75.57;27.87;;;;;;;18.66;100.00;100586.06;4933245;29;20448;-86
2023/07/28 07:13:59;;;;;;;33.22;16.77;;;;;;;18.57;100.00;100583.34;4933646;29;20403;-86
2023/07/28 07:16:24;;;;;;;24.83;14.37;;;;;;;18.62;100.00;100586.69;4948057;29;20035;-87
2023/07/28 07:18:51;;;;;;;65.10;26.40;;;;;;;18.67;100.00;100598.53;4934927;29;20365;-88
2023/07/28 07:21:17;;;;;;;43.17;19.77;;;;;;;18.55;100.00;100586.38;4935042;29;20637;-88
2023/07/28 07:23:42;;;;;;;27.10;15.17;;;;;;;18.71;100.00;100605.72;4934098;29;20134;-86
2023/07/28 07:26:07;;;;;;;28.83;14.37;;;;;;;18.75;100.00;100601.22;4935005;29;20555;-88
2023/07/28 07:28:35;;;;;;;24.90;13.77;;;;;;;18.73;100.00;100597.25;4931472;29;20028;-85
2023/07/28 07:31:01;;;;;;;24.17;13.10;;;;;;;18.80;100.00;100600.31;4932770;29;20400;-86
2023/07/28 07:33:27;;;;;;;29.58;13.35;;;;;;;18.80;100.00;100599.47;4933621;29;20035;-91
2023/07/28 07:35:53;;;;;;;22.58;12.98;;;;;;;18.78;100.00;100602.53;4933333;29;20918;-91
2023/07/28 07:38:18;;;;;;;22.13;13.07;;;;;;;18.73;100.00;100597.25;4933264;29;20028;-92
2023/07/28 07:40:46;;;;;;;17.98;11.75;;;;;;;18.80;100.00;100616.59;4936539;29;20032;-92
2023/07/28 07:43:18;;;;;;;18.77;11.60;;;;;;;18.81;100.00;100614.66;4938505;29;20035;-95
2023/07/28 07:45:43;;;;;;;16.60;10.77;;;;;;;18.79;100.00;100603.31;4934512;29;20298;-89
2023/07/28 07:48:10;;;;;;;15.68;10.63;;;;;;;18.94;100.00;100613.69;4929502;29;20468;-91
2023/07/28 07:50:36;;;;;;;15.57;11.02;;;;;;;18.93;100.00;100612.09;4938867;29;20058;-91
2023/07/28 07:53:01;;;;;;;17.03;10.53;;;;;;;19.05;100.00;100616.91;4934443;29;20479;-91
2023/07/28 07:55:26;;;;;;;14.17;9.73;;;;;;;19.04;100.00;100613.41;4935254;29;20024;-90
2023/07/28 07:57:52;;;;;;;17.07;10.57;;;;;;;19.14;100.00;100611.47;4933788;29;20036;-93
2023/07/28 08:00:18;;;;;;;14.60;9.55;;;;;;;19.14;100.00;100606.84;4935198;29;20054;-90
2023/07/28 08:02:43;;;;;;;13.60;9.75;;;;;;;19.09;100.00;100607.00;4927623;29;20082;-91
2023/07/28 08:05:09;;;;;;;13.63;9.07;;;;;;;19.18;100.00;100626.81;4930429;29;20034;-90
2023/07/28 08:07:35;;;;;;;14.25;9.10;;;;;;;19.15;100.00;100627.47;4933062;29;20118;-91
2023/07/28 08:10:01;;;;;;;11.40;8.60;;;;;;;19.12;100.00;100630.00;4932778;29;20548;-89
2023/07/28 08:12:27;;;;;;;12.60;7.97;;;;;;;19.01;100.00;100621.38;4931319;29;20398;-91
2023/07/28 08:14:53;;;;;;;12.10;8.50;;;;;;;19.06;100.00;100629.38;4933696;29;20645;-93
2023/07/28 08:17:19;;;;;;;9.85;8.35;;;;;;;19.12;100.00;100630.00;4934685;29;20392;-92
2023/07/28 08:19:44;;;;;;;12.33;8.57;;;;;;;19.13;100.00;100626.97;4955089;29;20086;-96
2023/07/28 08:22:12;;;;;;;12.17;9.40;;;;;;;19.24;100.00;100634.78;4960944;29;20018;-96
2023/07/28 08:40:27;;;;;;;8.85;6.95;;;;;;;19.22;100.00;100616.91;5797056;23;20040;-96
2023/07/28 08:43:16;;;;;;;9.27;6.80;;;;;;;19.31;100.00;100613.38;5133240;23;20051;-96
2023/07/28 09:03:50;;;;;;;4.70;4.30;;;;;;;21.47;100.00;100625.56;4958092;29;20331;-96
2023/07/28 09:06:39;;;;;;;4.43;4.10;;;;;;;21.67;100.00;100631.31;4961585;28;20331;-96
2023/07/28 09:09:17;;;;;;;4.80;3.85;;;;;;;22.12;100.00;100671.34;4958696;29;20026;-96
2023/07/28 09:11:45;;;;;;;5.22;4.75;;;;;;;22.42;100.00;100664.88;4958670;29;20106;-96
2023/07/28 09:14:16;;;;;;;5.18;4.70;;;;;;;22.65;100.00;100668.75;4958692;28;20120;-96
2023/07/28 09:16:48;;;;;;;7.20;3.90;;;;;;;22.70;100.00;100621.28;4959210;29;20007;-96
2023/07/28 09:19:14;;;;;;;6.82;4.30;;;;;;;23.17;100.00;100643.69;4958209;29;20079;-96
2023/07/28 09:21:43;;;;;;;4.50;4.07;;;;;;;23.40;100.00;100669.31;4957791;29;20024;-96
2023/07/28 09:24:32;;;;;;;4.20;3.88;;;;;;;23.35;100.00;100666.84;4943480;28;20051;-96
2023/07/28 09:26:59;;;;;;;5.65;5.25;;;;;;;23.16;100.00;100625.69;4938965;29;20055;-96
2023/07/28 09:29:29;;;;;;;9.38;5.32;;;;;;;23.14;100.00;100629.56;4943576;29;20035;-96
2023/07/28 09:32:04;;;;;;;5.70;5.30;;;;;;;23.22;100.00;100657.91;4938441;28;20035;-96
2023/07/28 09:34:29;;;;;;;5.95;5.45;;;;;;;23.21;100.00;100625.44;4940040;29;20054;-96
2023/07/28 09:37:32;;;;;;;6.43;5.10;;;;;;;23.71;100.00;100667.78;4942324;29;20543;-96
2023/07/28 09:40:04;;;;;;;8.07;4.70;;;;;;;23.82;100.00;100645.38;4938341;29;20428;-96
2023/07/28 09:42:34;;;;;;;5.45;4.93;;;;;;;24.11;100.00;100629.66;4954252;29;20034;-96
2023/07/28 09:45:07;;;;;;;5.10;4.70;;;;;;;24.42;100.00;100622.56;4947298;29;20167;-96
2023/07/28 09:47:41;;;;;;;4.93;4.53;;;;;;;24.97;100.00;100651.91;4938293;28;20027;-96
2023/07/28 09:50:32;;;;;;;5.63;5.03;;;;;;;25.02;100.00;100670.78;4955071;29;20304;-96
2023/07/28 09:53:23;;;;;;;4.80;4.50;;;;;;;25.03;100.00;100669.63;4936592;29;20038;-96
2023/07/28 09:56:10;;;;;;;4.75;4.45;;;;;;;24.93;100.00;100646.31;4936489;29;20032;-96
2023/07/28 09:58:51;;;;;;;4.70;3.92;;;;;;;25.44;100.00;100672.81;4938000;29;20031;-96
2023/07/28 10:01:19;;;;;;;3.88;3.67;;;;;;;25.50;100.00;100682.31;4939264;29;20043;-96
2023/07/28 10:04:17;;;;;;;3.83;3.50;;;;;;;25.54;100.00;100676.91;4937216;29;20036;-96
2023/07/28 10:07:07;;;;;;;3.70;3.40;;;;;;;25.37;100.00;100642.50;4935804;29;20039;-96
2023/07/28 10:09:47;;;;;;;3.50;3.20;;;;;;;25.78;100.00;100673.00;4935267;29;20315;-96
2023/07/28 10:12:25;;;;;;;3.28;2.90;;;;;;;25.36;100.00;100660.88;4934364;29;20087;-96
2023/07/28 10:15:08;;;;;;;3.33;3.08;;;;;;;25.51;100.00;100667.44;4933940;29;20039;-96
2023/07/28 10:18:02;;;;;;;;;;;;;;;;;;;;;
2023/07/28 10:20:35;;;;;;;2.42;2.22;;;;;;;25.71;100.00;100683.88;4942537;29;20579;-94
2023/07/28 10:23:17;;;;;;;2.88;2.67;;;;;;;25.19;100.00;100662.13;4934781;29;20028;-95
2023/07/28 10:25:55;;;;;;;3.27;2.80;;;;;;;24.69;100.00;100661.06;4933702;29;20424;-96
2023/07/28 10:28:47;;;;;;;4.23;2.50;;;;;;;24.85;100.00;100672.00;4934867;29;20279;-95
2023/07/28 10:31:13;;;;;;;3.05;2.85;;;;;;;24.77;100.00;100649.94;4934440;29;20028;-95
2023/07/28 10:33:41;;;;;;;3.20;3.00;;;;;;;25.09;100.00;100659.97;4934088;29;20020;-95
2023/07/28 10:36:17;;;;;;;3.60;3.03;;;;;;;25.47;100.00;100663.84;4933085;29;20075;-95
2023/07/28 10:38:46;;;;;;;3.55;3.15;;;;;;;25.39;97.63;100656.59;4934886;29;20028;-95
2023/07/28 10:41:18;;;;;;;3.35;3.15;;;;;;;25.67;97.82;100683.78;4936383;29;20024;-96
2023/07/28 10:43:47;;;;;;;3.17;2.97;;;;;;;26.12;97.78;100677.91;4933143;29;20044;-95
2023/07/28 10:46:27;;;;;;;3.53;3.28;;;;;;;26.60;94.77;100671.94;4936990;28;20090;-94
2023/07/28 10:48:55;;;;;;;4.00;3.70;;;;;;;26.81;91.49;100651.41;4936445;28;20062;-95
2023/07/28 10:51:25;;;;;;;3.97;3.22;;;;;;;26.92;88.70;100649.59;4936049;29;20032;-95
2023/07/28 10:54:02;;;;;;;3.10;2.80;;;;;;;26.95;92.37;100648.84;4936847;29;20435;-94
2023/07/28 10:56:28;;;;;;;2.95;2.75;;;;;;;27.22;83.81;100670.72;4936740;29;20020;-94
2023/07/28 10:59:01;;;;;;;2.10;2.00;;;;;;;27.25;89.94;100658.97;4936881;29;20027;-96
2023/07/28 11:01:49;;;;;;;2.13;2.03;;;;;;;27.21;89.41;100641.63;4943009;29;20059;-95
2023/07/28 11:04:17;;;;;;;2.83;1.73;;;;;;;27.20;81.19;100651.88;4950153;29;20040;-95
2023/07/28 11:06:48;;;;;;;2.30;2.10;;;;;;;27.20;78.47;100642.84;4936485;29;20398;-95
2023/07/28 11:09:17;;;;;;;2.45;1.63;;;;;;;27.22;78.88;100654.22;4958530;29;20103;-96
2023/07/28 11:11:43;;;;;;;1.90;1.80;;;;;;;26.95;78.66;100648.03;4941070;28;20049;-95
2023/07/28 11:14:09;;;;;;;3.22;1.73;;;;;;;26.57;75.54;100647.94;4937720;29;20046;-94
2023/07/28 11:16:41;;;;;;;2.20;2.03;;;;;;;26.80;82.03;100647.88;4939747;29;20027;-95
2023/07/28 11:19:11;;;;;;;1.93;1.83;;;;;;;26.83;80.63;100673.81;4938198;28;20114;-95
2023/07/28 11:21:37;;;;;;;2.40;1.77;;;;;;;26.34;79.33;100651.53;4936772;29;20035;-96
2023/07/28 11:24:04;;;;;;;2.10;2.00;;;;;;;25.86;81.54;100632.75;4937083;29;20144;-94
2023/07/28 11:26:30;;;;;;;1.90;1.60;;;;;;;25.92;79.50;100671.69;4935278;29;20054;-94
2023/07/28 11:28:55;;;;;;;2.90;1.80;;;;;;;25.51;81.60;100647.44;4935401;29;20476;-95
2023/07/28 11:31:25;;;;;;;2.22;2.13;;;;;;;25.33;83.49;100652.59;4935887;29;20038;-94
2023/07/28 11:33:51;;;;;;;1.90;1.80;;;;;;;25.18;87.46;100638.63;4935935;29;20129;-94
2023/07/28 11:36:27;;;;;;;2.27;2.10;;;;;;;25.54;90.10;100661.25;4935881;29;20299;-94
2023/07/28 11:38:54;;;;;;;2.40;1.80;;;;;;;25.59;86.99;100653.84;4935072;29;20156;-94
2023/07/28 11:41:21;;;;;;;3.33;1.90;;;;;;;25.44;78.80;100634.41;4936408;29;20024;-94
2023/07/28 11:43:50;;;;;;;1.50;1.40;;;;;;;25.43;82.99;100660.25;4935932;29;20044;-93
2023/07/28 11:46:35;;;;;;;1.60;1.50;;;;;;;25.49;83.74;100672.50;4935638;28;20047;-94
2023/07/28 11:49:13;;;;;;;1.40;1.30;;;;;;;25.77;85.05;100665.94;4936124;29;20099;-95
2023/07/28 11:51:46;;;;;;;1.87;1.70;;;;;;;25.79;77.77;100646.38;4934806;29;20283;-94
2023/07/28 11:54:14;;;;;;;1.90;1.80;;;;;;;26.62;78.17;100666.84;4934304;29;20035;-94
2023/07/28 11:56:41;;;;;;;1.77;1.67;;;;;;;26.84;73.42;100639.69;4934851;29;20024;-94
2023/07/28 11:59:07;;;;;;;4.15;1.70;;;;;;;27.45;74.03;100670.59;4935956;29;20028;-94